sensor_id;sensor_type;location;lat;lon;timestamp;temperature;humidity
10133;DHT22;5106;50.926;7.080;2023-05-07T00:00:40;14.00;85.70
10133;DHT22;5106;50.926;7.080;2023-05-07T00:03:06;14.00;85.70
10133;DHT22;5106;50.926;7.080;2023-05-07T00:05:32;14.00;85.70
10133;DHT22;5106;50.926;7.080;2023-05-07T00:07:57;14.00;85.70
10133;DHT22;5106;50.926;7.080;2023-05-07T00:10:23;14.00;85.60
10133;DHT22;5106;50.926;7.080;2023-05-07T00:12:49;14.00;85.50
10133;DHT22;5106;50.926;7.080;2023-05-07T00:15:14;14.10;85.40
10133;DHT22;5106;50.926;7.080;2023-05-07T00:17:40;14.10;85.30
10133;DHT22;5106;50.926;7.080;2023-05-07T00:20:06;14.00;85.20
10133;DHT22;5106;50.926;7.080;2023-05-07T00:22:32;14.00;85.20
10133;DHT22;5106;50.926;7.080;2023-05-07T00:24:58;14.00;85.20
10133;DHT22;5106;50.926;7.080;2023-05-07T00:27:24;14.10;85.30
10133;DHT22;5106;50.926;7.080;2023-05-07T00:29:50;14.10;85.20
10133;DHT22;5106;50.926;7.080;2023-05-07T00:32:16;14.10;85.20
10133;DHT22;5106;50.926;7.080;2023-05-07T00:34:42;14.00;85.20
10133;DHT22;5106;50.926;7.080;2023-05-07T00:37:07;14.00;85.20
10133;DHT22;5106;50.926;7.080;2023-05-07T00:39:34;14.00;85.10
10133;DHT22;5106;50.926;7.080;2023-05-07T00:42:00;14.00;85.10
10133;DHT22;5106;50.926;7.080;2023-05-07T00:44:26;14.00;85.20
10133;DHT22;5106;50.926;7.080;2023-05-07T00:46:53;14.00;85.20
10133;DHT22;5106;50.926;7.080;2023-05-07T00:49:19;14.00;85.20
10133;DHT22;5106;50.926;7.080;2023-05-07T00:51:45;13.90;85.10
10133;DHT22;5106;50.926;7.080;2023-05-07T00:54:12;13.90;85.10
10133;DHT22;5106;50.926;7.080;2023-05-07T00:56:38;13.80;85.10
10133;DHT22;5106;50.926;7.080;2023-05-07T00:59:05;13.80;85.20
10133;DHT22;5106;50.926;7.080;2023-05-07T01:01:31;13.80;85.30
10133;DHT22;5106;50.926;7.080;2023-05-07T01:03:57;13.80;85.40
10133;DHT22;5106;50.926;7.080;2023-05-07T01:06:24;13.80;85.40
10133;DHT22;5106;50.926;7.080;2023-05-07T01:08:53;13.80;85.50
10133;DHT22;5106;50.926;7.080;2023-05-07T01:11:22;13.80;85.50
10133;DHT22;5106;50.926;7.080;2023-05-07T01:13:49;13.80;85.50
10133;DHT22;5106;50.926;7.080;2023-05-07T01:16:15;13.80;85.40
10133;DHT22;5106;50.926;7.080;2023-05-07T01:18:41;13.80;85.40
10133;DHT22;5106;50.926;7.080;2023-05-07T01:21:08;13.80;85.50
10133;DHT22;5106;50.926;7.080;2023-05-07T01:23:36;13.80;85.50
10133;DHT22;5106;50.926;7.080;2023-05-07T01:26:02;13.80;85.50
10133;DHT22;5106;50.926;7.080;2023-05-07T01:28:27;13.80;85.40
10133;DHT22;5106;50.926;7.080;2023-05-07T01:30:55;13.80;85.40
10133;DHT22;5106;50.926;7.080;2023-05-07T01:33:22;13.80;85.40
10133;DHT22;5106;50.926;7.080;2023-05-07T01:35:50;13.80;85.40
10133;DHT22;5106;50.926;7.080;2023-05-07T01:38:17;13.80;85.40
10133;DHT22;5106;50.926;7.080;2023-05-07T01:40:43;13.80;85.40
10133;DHT22;5106;50.926;7.080;2023-05-07T01:43:09;13.80;85.40
10133;DHT22;5106;50.926;7.080;2023-05-07T01:45:36;13.80;85.40
10133;DHT22;5106;50.926;7.080;2023-05-07T01:48:03;13.70;85.40
10133;DHT22;5106;50.926;7.080;2023-05-07T01:50:29;13.70;85.50
10133;DHT22;5106;50.926;7.080;2023-05-07T01:52:56;13.70;85.40
10133;DHT22;5106;50.926;7.080;2023-05-07T01:55:21;13.60;85.50
10133;DHT22;5106;50.926;7.080;2023-05-07T01:57:47;13.60;85.60
10133;DHT22;5106;50.926;7.080;2023-05-07T02:00:13;13.60;85.60
10133;DHT22;5106;50.926;7.080;2023-05-07T02:02:38;13.50;85.70
10133;DHT22;5106;50.926;7.080;2023-05-07T02:05:04;13.60;85.90
10133;DHT22;5106;50.926;7.080;2023-05-07T02:07:33;13.50;85.90
10133;DHT22;5106;50.926;7.080;2023-05-07T02:09:59;13.60;85.90
10133;DHT22;5106;50.926;7.080;2023-05-07T02:12:24;13.60;85.90
10133;DHT22;5106;50.926;7.080;2023-05-07T02:14:50;13.60;85.90
10133;DHT22;5106;50.926;7.080;2023-05-07T02:17:15;13.60;85.90
10133;DHT22;5106;50.926;7.080;2023-05-07T02:19:41;13.60;85.90
10133;DHT22;5106;50.926;7.080;2023-05-07T02:22:07;13.60;85.90
10133;DHT22;5106;50.926;7.080;2023-05-07T02:24:33;13.60;85.90
10133;DHT22;5106;50.926;7.080;2023-05-07T02:26:58;13.60;85.80
10133;DHT22;5106;50.926;7.080;2023-05-07T02:29:24;13.60;85.80
10133;DHT22;5106;50.926;7.080;2023-05-07T02:31:49;13.60;85.70
10133;DHT22;5106;50.926;7.080;2023-05-07T02:34:16;13.60;85.70
10133;DHT22;5106;50.926;7.080;2023-05-07T02:36:42;13.60;85.70
10133;DHT22;5106;50.926;7.080;2023-05-07T02:39:08;13.50;85.60
10133;DHT22;5106;50.926;7.080;2023-05-07T02:41:39;13.50;85.70
10133;DHT22;5106;50.926;7.080;2023-05-07T02:44:05;13.50;85.60
10133;DHT22;5106;50.926;7.080;2023-05-07T02:46:31;13.50;85.60
10133;DHT22;5106;50.926;7.080;2023-05-07T02:48:57;13.50;85.60
10133;DHT22;5106;50.926;7.080;2023-05-07T02:51:22;13.40;85.60
10133;DHT22;5106;50.926;7.080;2023-05-07T02:53:48;13.40;85.60
10133;DHT22;5106;50.926;7.080;2023-05-07T02:56:14;13.40;85.70
10133;DHT22;5106;50.926;7.080;2023-05-07T02:58:40;13.40;85.70
10133;DHT22;5106;50.926;7.080;2023-05-07T03:01:06;13.40;85.90
10133;DHT22;5106;50.926;7.080;2023-05-07T03:03:32;13.40;85.90
10133;DHT22;5106;50.926;7.080;2023-05-07T03:05:57;13.40;85.90
10133;DHT22;5106;50.926;7.080;2023-05-07T03:08:23;13.40;85.90
10133;DHT22;5106;50.926;7.080;2023-05-07T03:10:50;13.40;85.90
10133;DHT22;5106;50.926;7.080;2023-05-07T03:13:16;13.40;86.10
10133;DHT22;5106;50.926;7.080;2023-05-07T03:15:42;13.40;86.10
10133;DHT22;5106;50.926;7.080;2023-05-07T03:18:08;13.40;85.90
10133;DHT22;5106;50.926;7.080;2023-05-07T03:20:33;13.40;85.90
10133;DHT22;5106;50.926;7.080;2023-05-07T03:22:59;13.40;85.90
10133;DHT22;5106;50.926;7.080;2023-05-07T03:25:24;13.30;85.90
10133;DHT22;5106;50.926;7.080;2023-05-07T03:27:50;13.30;86.00
10133;DHT22;5106;50.926;7.080;2023-05-07T03:30:16;13.30;86.10
10133;DHT22;5106;50.926;7.080;2023-05-07T03:32:41;13.30;86.10
10133;DHT22;5106;50.926;7.080;2023-05-07T03:35:07;13.30;86.00
10133;DHT22;5106;50.926;7.080;2023-05-07T03:37:32;13.30;85.90
10133;DHT22;5106;50.926;7.080;2023-05-07T03:39:58;13.30;85.90
10133;DHT22;5106;50.926;7.080;2023-05-07T03:42:24;13.30;85.90
10133;DHT22;5106;50.926;7.080;2023-05-07T03:44:49;13.30;85.90
10133;DHT22;5106;50.926;7.080;2023-05-07T03:47:15;13.30;85.90
10133;DHT22;5106;50.926;7.080;2023-05-07T03:49:41;13.20;85.90
10133;DHT22;5106;50.926;7.080;2023-05-07T03:52:06;13.20;86.00
10133;DHT22;5106;50.926;7.080;2023-05-07T03:54:32;13.20;86.00
10133;DHT22;5106;50.926;7.080;2023-05-07T03:56:58;13.30;86.00
10133;DHT22;5106;50.926;7.080;2023-05-07T03:59:23;13.30;86.00
10133;DHT22;5106;50.926;7.080;2023-05-07T04:01:49;13.30;86.00
10133;DHT22;5106;50.926;7.080;2023-05-07T04:04:15;13.30;85.90
10133;DHT22;5106;50.926;7.080;2023-05-07T04:06:41;13.30;85.90
10133;DHT22;5106;50.926;7.080;2023-05-07T04:09:07;13.30;85.90
10133;DHT22;5106;50.926;7.080;2023-05-07T04:11:33;13.30;85.90
10133;DHT22;5106;50.926;7.080;2023-05-07T04:13:58;13.30;85.90
10133;DHT22;5106;50.926;7.080;2023-05-07T04:16:24;13.30;85.90
10133;DHT22;5106;50.926;7.080;2023-05-07T04:18:49;13.30;85.90
10133;DHT22;5106;50.926;7.080;2023-05-07T04:21:16;13.30;85.90
10133;DHT22;5106;50.926;7.080;2023-05-07T04:23:42;13.30;85.90
10133;DHT22;5106;50.926;7.080;2023-05-07T04:26:07;13.30;85.80
10133;DHT22;5106;50.926;7.080;2023-05-07T04:28:34;13.30;85.90
10133;DHT22;5106;50.926;7.080;2023-05-07T04:30:59;13.30;85.90
10133;DHT22;5106;50.926;7.080;2023-05-07T04:33:25;13.30;85.90
10133;DHT22;5106;50.926;7.080;2023-05-07T04:35:51;13.30;86.00
10133;DHT22;5106;50.926;7.080;2023-05-07T04:38:16;13.40;85.90
10133;DHT22;5106;50.926;7.080;2023-05-07T04:40:43;13.30;85.90
10133;DHT22;5106;50.926;7.080;2023-05-07T04:43:09;13.30;85.80
10133;DHT22;5106;50.926;7.080;2023-05-07T04:45:36;13.30;86.00
10133;DHT22;5106;50.926;7.080;2023-05-07T04:48:02;13.30;86.00
10133;DHT22;5106;50.926;7.080;2023-05-07T04:50:27;13.30;86.10
10133;DHT22;5106;50.926;7.080;2023-05-07T04:52:53;13.30;86.20
10133;DHT22;5106;50.926;7.080;2023-05-07T04:55:18;13.30;86.20
10133;DHT22;5106;50.926;7.080;2023-05-07T04:57:44;13.30;86.30
10133;DHT22;5106;50.926;7.080;2023-05-07T05:00:10;13.40;86.30
10133;DHT22;5106;50.926;7.080;2023-05-07T05:02:39;13.40;86.30
10133;DHT22;5106;50.926;7.080;2023-05-07T05:05:05;13.40;86.30
10133;DHT22;5106;50.926;7.080;2023-05-07T05:07:31;13.40;86.30
10133;DHT22;5106;50.926;7.080;2023-05-07T05:09:56;13.40;86.40
10133;DHT22;5106;50.926;7.080;2023-05-07T05:12:23;13.50;86.50
10133;DHT22;5106;50.926;7.080;2023-05-07T05:14:48;13.50;86.50
10133;DHT22;5106;50.926;7.080;2023-05-07T05:17:15;13.50;86.50
10133;DHT22;5106;50.926;7.080;2023-05-07T05:19:40;13.50;86.50
10133;DHT22;5106;50.926;7.080;2023-05-07T05:22:06;13.60;86.60
10133;DHT22;5106;50.926;7.080;2023-05-07T05:24:32;13.60;86.50
10133;DHT22;5106;50.926;7.080;2023-05-07T05:26:57;13.60;86.50
10133;DHT22;5106;50.926;7.080;2023-05-07T05:29:25;13.60;86.50
10133;DHT22;5106;50.926;7.080;2023-05-07T05:31:50;13.60;86.50
10133;DHT22;5106;50.926;7.080;2023-05-07T05:34:16;13.60;86.50
10133;DHT22;5106;50.926;7.080;2023-05-07T05:36:43;13.70;86.70
10133;DHT22;5106;50.926;7.080;2023-05-07T05:39:08;13.70;86.70
10133;DHT22;5106;50.926;7.080;2023-05-07T05:41:34;13.80;86.70
10133;DHT22;5106;50.926;7.080;2023-05-07T05:44:00;13.80;86.70
10133;DHT22;5106;50.926;7.080;2023-05-07T05:46:25;13.90;86.70
10133;DHT22;5106;50.926;7.080;2023-05-07T05:48:51;14.00;86.70
10133;DHT22;5106;50.926;7.080;2023-05-07T05:51:16;14.00;86.70
10133;DHT22;5106;50.926;7.080;2023-05-07T05:53:42;14.00;86.60
10133;DHT22;5106;50.926;7.080;2023-05-07T05:56:08;14.00;86.50
10133;DHT22;5106;50.926;7.080;2023-05-07T05:58:33;14.10;86.50
10133;DHT22;5106;50.926;7.080;2023-05-07T06:00:59;14.10;86.60
10133;DHT22;5106;50.926;7.080;2023-05-07T06:03:25;14.20;86.60
10133;DHT22;5106;50.926;7.080;2023-05-07T06:05:51;14.20;86.60
10133;DHT22;5106;50.926;7.080;2023-05-07T06:08:16;14.30;86.60
10133;DHT22;5106;50.926;7.080;2023-05-07T06:10:43;14.30;86.50
10133;DHT22;5106;50.926;7.080;2023-05-07T06:13:09;14.40;86.40
10133;DHT22;5106;50.926;7.080;2023-05-07T06:15:35;14.40;86.40
10133;DHT22;5106;50.926;7.080;2023-05-07T06:18:00;14.40;86.40
10133;DHT22;5106;50.926;7.080;2023-05-07T06:20:26;14.40;86.30
10133;DHT22;5106;50.926;7.080;2023-05-07T06:22:51;14.50;86.30
10133;DHT22;5106;50.926;7.080;2023-05-07T06:25:17;14.50;86.10
10133;DHT22;5106;50.926;7.080;2023-05-07T06:27:43;14.50;86.10
10133;DHT22;5106;50.926;7.080;2023-05-07T06:30:08;14.60;86.10
10133;DHT22;5106;50.926;7.080;2023-05-07T06:32:34;14.60;86.10
10133;DHT22;5106;50.926;7.080;2023-05-07T06:34:59;14.70;86.00
10133;DHT22;5106;50.926;7.080;2023-05-07T06:37:25;14.70;86.10
10133;DHT22;5106;50.926;7.080;2023-05-07T06:39:51;14.80;86.00
10133;DHT22;5106;50.926;7.080;2023-05-07T06:42:16;14.80;86.00
10133;DHT22;5106;50.926;7.080;2023-05-07T06:44:42;14.90;86.00
10133;DHT22;5106;50.926;7.080;2023-05-07T06:47:07;15.00;86.00
10133;DHT22;5106;50.926;7.080;2023-05-07T06:49:33;15.00;86.00
10133;DHT22;5106;50.926;7.080;2023-05-07T06:51:59;15.10;86.00
10133;DHT22;5106;50.926;7.080;2023-05-07T06:54:24;15.10;85.70
10133;DHT22;5106;50.926;7.080;2023-05-07T06:56:50;15.10;85.70
10133;DHT22;5106;50.926;7.080;2023-05-07T06:59:16;15.20;85.50
10133;DHT22;5106;50.926;7.080;2023-05-07T07:01:41;15.30;85.50
10133;DHT22;5106;50.926;7.080;2023-05-07T07:04:07;15.30;85.50
10133;DHT22;5106;50.926;7.080;2023-05-07T07:06:33;15.40;85.50
10133;DHT22;5106;50.926;7.080;2023-05-07T07:08:59;15.40;85.50
10133;DHT22;5106;50.926;7.080;2023-05-07T07:11:25;15.50;85.50
10133;DHT22;5106;50.926;7.080;2023-05-07T07:13:50;15.60;85.40
10133;DHT22;5106;50.926;7.080;2023-05-07T07:16:16;15.60;85.30
10133;DHT22;5106;50.926;7.080;2023-05-07T07:18:42;15.70;85.10
10133;DHT22;5106;50.926;7.080;2023-05-07T07:21:07;15.80;84.80
10133;DHT22;5106;50.926;7.080;2023-05-07T07:23:33;15.80;84.50
10133;DHT22;5106;50.926;7.080;2023-05-07T07:25:59;15.90;84.40
10133;DHT22;5106;50.926;7.080;2023-05-07T07:28:24;16.10;84.30
10133;DHT22;5106;50.926;7.080;2023-05-07T07:30:50;16.10;83.80
10133;DHT22;5106;50.926;7.080;2023-05-07T07:33:15;16.20;83.70
10133;DHT22;5106;50.926;7.080;2023-05-07T07:35:41;16.30;83.70
10133;DHT22;5106;50.926;7.080;2023-05-07T07:38:07;16.30;83.40
10133;DHT22;5106;50.926;7.080;2023-05-07T07:40:34;16.30;83.40
10133;DHT22;5106;50.926;7.080;2023-05-07T07:43:00;16.30;83.20
10133;DHT22;5106;50.926;7.080;2023-05-07T07:45:26;16.40;83.10
10133;DHT22;5106;50.926;7.080;2023-05-07T07:47:52;16.50;82.80
10133;DHT22;5106;50.926;7.080;2023-05-07T07:50:18;16.50;82.60
10133;DHT22;5106;50.926;7.080;2023-05-07T07:52:44;16.60;82.50
10133;DHT22;5106;50.926;7.080;2023-05-07T07:55:09;16.80;82.50
10133;DHT22;5106;50.926;7.080;2023-05-07T07:57:35;16.90;82.10
10133;DHT22;5106;50.926;7.080;2023-05-07T08:00:01;16.90;82.00
10133;DHT22;5106;50.926;7.080;2023-05-07T08:02:26;17.10;82.00
10133;DHT22;5106;50.926;7.080;2023-05-07T08:04:52;17.20;81.80
10133;DHT22;5106;50.926;7.080;2023-05-07T08:07:17;17.30;81.50
10133;DHT22;5106;50.926;7.080;2023-05-07T08:09:46;17.40;80.80
10133;DHT22;5106;50.926;7.080;2023-05-07T08:12:12;17.50;80.10
10133;DHT22;5106;50.926;7.080;2023-05-07T08:14:38;17.60;79.90
10133;DHT22;5106;50.926;7.080;2023-05-07T08:17:04;17.80;79.50
10133;DHT22;5106;50.926;7.080;2023-05-07T08:19:30;17.90;79.40
10133;DHT22;5106;50.926;7.080;2023-05-07T08:21:55;18.00;79.90
10133;DHT22;5106;50.926;7.080;2023-05-07T08:24:21;18.10;79.60
10133;DHT22;5106;50.926;7.080;2023-05-07T08:26:46;18.10;79.60
10133;DHT22;5106;50.926;7.080;2023-05-07T08:29:12;18.20;79.50
10133;DHT22;5106;50.926;7.080;2023-05-07T08:31:37;18.20;79.60
10133;DHT22;5106;50.926;7.080;2023-05-07T08:34:06;18.20;79.50
10133;DHT22;5106;50.926;7.080;2023-05-07T08:36:32;18.30;79.80
10133;DHT22;5106;50.926;7.080;2023-05-07T08:38:57;18.30;79.00
10133;DHT22;5106;50.926;7.080;2023-05-07T08:41:23;18.30;77.70
10133;DHT22;5106;50.926;7.080;2023-05-07T08:43:49;18.40;77.70
10133;DHT22;5106;50.926;7.080;2023-05-07T08:46:18;18.40;78.00
10133;DHT22;5106;50.926;7.080;2023-05-07T08:48:45;18.40;78.60
10133;DHT22;5106;50.926;7.080;2023-05-07T08:51:16;18.50;78.90
10133;DHT22;5106;50.926;7.080;2023-05-07T08:53:42;18.50;79.00
10133;DHT22;5106;50.926;7.080;2023-05-07T08:56:09;18.50;79.10
10133;DHT22;5106;50.926;7.080;2023-05-07T08:58:35;18.60;78.50
10133;DHT22;5106;50.926;7.080;2023-05-07T09:01:14;18.60;77.90
10133;DHT22;5106;50.926;7.080;2023-05-07T09:03:43;18.60;78.00
10133;DHT22;5106;50.926;7.080;2023-05-07T09:06:09;18.70;77.20
10133;DHT22;5106;50.926;7.080;2023-05-07T09:08:35;18.70;77.50
10133;DHT22;5106;50.926;7.080;2023-05-07T09:11:01;18.70;78.00
10133;DHT22;5106;50.926;7.080;2023-05-07T09:13:28;18.80;77.70
10133;DHT22;5106;50.926;7.080;2023-05-07T09:15:54;18.90;77.40
10133;DHT22;5106;50.926;7.080;2023-05-07T09:18:19;18.90;77.60
10133;DHT22;5106;50.926;7.080;2023-05-07T09:20:45;19.00;77.60
10133;DHT22;5106;50.926;7.080;2023-05-07T09:23:10;19.20;76.80
10133;DHT22;5106;50.926;7.080;2023-05-07T09:25:36;19.30;76.20
10133;DHT22;5106;50.926;7.080;2023-05-07T09:28:04;19.50;76.40
10133;DHT22;5106;50.926;7.080;2023-05-07T09:30:31;19.60;75.50
10133;DHT22;5106;50.926;7.080;2023-05-07T09:32:58;19.80;74.50
10133;DHT22;5106;50.926;7.080;2023-05-07T09:35:25;19.90;74.10
10133;DHT22;5106;50.926;7.080;2023-05-07T09:37:57;20.10;74.00
10133;DHT22;5106;50.926;7.080;2023-05-07T09:40:27;20.30;73.20
10133;DHT22;5106;50.926;7.080;2023-05-07T09:42:54;20.40;72.10
10133;DHT22;5106;50.926;7.080;2023-05-07T09:45:27;20.50;72.60
10133;DHT22;5106;50.926;7.080;2023-05-07T09:47:57;20.60;72.90
10133;DHT22;5106;50.926;7.080;2023-05-07T09:50:28;20.70;72.70
10133;DHT22;5106;50.926;7.080;2023-05-07T09:52:55;20.80;73.00
10133;DHT22;5106;50.926;7.080;2023-05-07T09:55:22;20.90;71.10
10133;DHT22;5106;50.926;7.080;2023-05-07T09:57:52;21.00;69.90
10133;DHT22;5106;50.926;7.080;2023-05-07T10:00:22;21.20;69.60
10133;DHT22;5106;50.926;7.080;2023-05-07T10:02:49;21.20;69.20
10133;DHT22;5106;50.926;7.080;2023-05-07T10:05:18;21.20;70.30
10133;DHT22;5106;50.926;7.080;2023-05-07T10:07:44;21.20;71.20
10133;DHT22;5106;50.926;7.080;2023-05-07T10:10:10;21.30;71.30
10133;DHT22;5106;50.926;7.080;2023-05-07T10:12:36;21.30;71.90
10133;DHT22;5106;50.926;7.080;2023-05-07T10:15:08;21.40;71.40
10133;DHT22;5106;50.926;7.080;2023-05-07T10:17:40;21.40;70.10
10133;DHT22;5106;50.926;7.080;2023-05-07T10:20:07;21.50;71.20
10133;DHT22;5106;50.926;7.080;2023-05-07T10:22:41;21.50;69.60
10133;DHT22;5106;50.926;7.080;2023-05-07T10:25:22;21.40;70.90
10133;DHT22;5106;50.926;7.080;2023-05-07T10:27:50;21.40;70.80
10133;DHT22;5106;50.926;7.080;2023-05-07T10:32:54;21.40;70.60
10133;DHT22;5106;50.926;7.080;2023-05-07T10:35:24;21.40;69.50
10133;DHT22;5106;50.926;7.080;2023-05-07T10:37:51;21.40;70.00
10133;DHT22;5106;50.926;7.080;2023-05-07T10:40:17;21.40;70.20
10133;DHT22;5106;50.926;7.080;2023-05-07T10:43:03;21.50;69.50
10133;DHT22;5106;50.926;7.080;2023-05-07T10:45:30;21.60;70.40
10133;DHT22;5106;50.926;7.080;2023-05-07T10:48:14;21.80;69.60
10133;DHT22;5106;50.926;7.080;2023-05-07T10:50:44;21.90;69.70
10133;DHT22;5106;50.926;7.080;2023-05-07T10:55:42;22.10;69.50
10133;DHT22;5106;50.926;7.080;2023-05-07T10:58:24;22.10;69.70
10133;DHT22;5106;50.926;7.080;2023-05-07T11:00:56;22.10;69.10
10133;DHT22;5106;50.926;7.080;2023-05-07T11:03:22;22.20;68.90
10133;DHT22;5106;50.926;7.080;2023-05-07T11:05:47;22.30;69.80
10133;DHT22;5106;50.926;7.080;2023-05-07T11:11:18;22.30;67.00
10133;DHT22;5106;50.926;7.080;2023-05-07T11:16:21;22.30;67.50
10133;DHT22;5106;50.926;7.080;2023-05-07T11:21:32;22.40;66.10
10133;DHT22;5106;50.926;7.080;2023-05-07T11:23:58;22.60;67.50
10133;DHT22;5106;50.926;7.080;2023-05-07T11:26:24;22.70;65.80
10133;DHT22;5106;50.926;7.080;2023-05-07T11:28:51;22.80;65.40
10133;DHT22;5106;50.926;7.080;2023-05-07T11:31:22;22.70;65.70
10133;DHT22;5106;50.926;7.080;2023-05-07T11:33:48;22.70;66.20
10133;DHT22;5106;50.926;7.080;2023-05-07T11:36:15;22.70;65.30
10133;DHT22;5106;50.926;7.080;2023-05-07T11:38:41;22.80;65.60
10133;DHT22;5106;50.926;7.080;2023-05-07T11:41:07;22.90;65.70
10133;DHT22;5106;50.926;7.080;2023-05-07T11:43:33;23.10;65.70
10133;DHT22;5106;50.926;7.080;2023-05-07T11:46:11;23.10;65.60
10133;DHT22;5106;50.926;7.080;2023-05-07T11:48:37;23.30;65.20
10133;DHT22;5106;50.926;7.080;2023-05-07T11:51:05;23.20;63.10
10133;DHT22;5106;50.926;7.080;2023-05-07T11:53:38;23.20;66.00
10133;DHT22;5106;50.926;7.080;2023-05-07T11:56:09;23.10;62.50
10133;DHT22;5106;50.926;7.080;2023-05-07T11:58:34;23.00;65.20
10133;DHT22;5106;50.926;7.080;2023-05-07T12:01:00;22.90;65.00
10133;DHT22;5106;50.926;7.080;2023-05-07T12:03:26;22.80;65.40
10133;DHT22;5106;50.926;7.080;2023-05-07T12:05:51;22.80;66.20
10133;DHT22;5106;50.926;7.080;2023-05-07T12:08:19;22.70;64.70
10133;DHT22;5106;50.926;7.080;2023-05-07T12:10:47;22.60;65.90
10133;DHT22;5106;50.926;7.080;2023-05-07T12:13:25;22.50;67.10
10133;DHT22;5106;50.926;7.080;2023-05-07T12:16:00;22.40;68.10
10133;DHT22;5106;50.926;7.080;2023-05-07T12:18:29;22.40;67.90
10133;DHT22;5106;50.926;7.080;2023-05-07T12:20:55;22.30;66.90
10133;DHT22;5106;50.926;7.080;2023-05-07T12:23:21;22.20;65.00
10133;DHT22;5106;50.926;7.080;2023-05-07T12:25:47;22.10;64.30
10133;DHT22;5106;50.926;7.080;2023-05-07T12:28:17;22.10;66.30
10133;DHT22;5106;50.926;7.080;2023-05-07T12:30:45;22.00;65.90
10133;DHT22;5106;50.926;7.080;2023-05-07T12:33:12;22.00;65.70
10133;DHT22;5106;50.926;7.080;2023-05-07T12:35:42;21.90;67.10
10133;DHT22;5106;50.926;7.080;2023-05-07T12:38:12;21.90;66.20
10133;DHT22;5106;50.926;7.080;2023-05-07T12:40:44;21.90;67.80
10133;DHT22;5106;50.926;7.080;2023-05-07T12:43:28;21.80;68.50
10133;DHT22;5106;50.926;7.080;2023-05-07T12:45:59;21.80;68.10
10133;DHT22;5106;50.926;7.080;2023-05-07T12:48:25;21.80;67.10
10133;DHT22;5106;50.926;7.080;2023-05-07T12:50:56;21.80;65.90
10133;DHT22;5106;50.926;7.080;2023-05-07T12:53:24;21.80;65.80
10133;DHT22;5106;50.926;7.080;2023-05-07T12:55:52;21.80;66.10
10133;DHT22;5106;50.926;7.080;2023-05-07T12:58:25;21.70;66.30
10133;DHT22;5106;50.926;7.080;2023-05-07T13:00:52;21.70;66.20
10133;DHT22;5106;50.926;7.080;2023-05-07T13:03:23;21.70;66.80
10133;DHT22;5106;50.926;7.080;2023-05-07T13:05:49;21.70;67.50
10133;DHT22;5106;50.926;7.080;2023-05-07T13:08:30;21.60;67.30
10133;DHT22;5106;50.926;7.080;2023-05-07T13:10:59;21.60;67.70
10133;DHT22;5106;50.926;7.080;2023-05-07T13:13:32;21.60;69.50
10133;DHT22;5106;50.926;7.080;2023-05-07T13:15:58;21.60;69.90
10133;DHT22;5106;50.926;7.080;2023-05-07T13:18:29;21.60;69.90
10133;DHT22;5106;50.926;7.080;2023-05-07T13:20:54;21.70;69.30
10133;DHT22;5106;50.926;7.080;2023-05-07T13:23:20;21.70;69.90
10133;DHT22;5106;50.926;7.080;2023-05-07T13:25:47;21.80;70.80
10133;DHT22;5106;50.926;7.080;2023-05-07T13:28:12;21.80;69.30
10133;DHT22;5106;50.926;7.080;2023-05-07T13:30:39;21.70;70.00
10133;DHT22;5106;50.926;7.080;2023-05-07T13:33:06;21.60;69.70
10133;DHT22;5106;50.926;7.080;2023-05-07T13:35:32;21.60;70.10
10133;DHT22;5106;50.926;7.080;2023-05-07T13:37:57;21.50;70.20
10133;DHT22;5106;50.926;7.080;2023-05-07T13:40:23;21.40;70.70
10133;DHT22;5106;50.926;7.080;2023-05-07T13:42:49;21.30;69.90
10133;DHT22;5106;50.926;7.080;2023-05-07T13:45:15;21.20;69.00
10133;DHT22;5106;50.926;7.080;2023-05-07T13:47:41;21.20;68.60
10133;DHT22;5106;50.926;7.080;2023-05-07T13:50:08;21.20;69.50
10133;DHT22;5106;50.926;7.080;2023-05-07T13:52:34;21.10;69.50
10133;DHT22;5106;50.926;7.080;2023-05-07T13:55:00;21.00;70.90
10133;DHT22;5106;50.926;7.080;2023-05-07T13:57:25;20.90;73.90
10133;DHT22;5106;50.926;7.080;2023-05-07T13:59:51;20.60;75.50
10133;DHT22;5106;50.926;7.080;2023-05-07T14:02:17;20.10;76.50
10133;DHT22;5106;50.926;7.080;2023-05-07T14:04:42;19.40;76.70
10133;DHT22;5106;50.926;7.080;2023-05-07T14:07:08;18.60;77.60
10133;DHT22;5106;50.926;7.080;2023-05-07T14:09:33;17.80;79.70
10133;DHT22;5106;50.926;7.080;2023-05-07T14:11:59;17.30;80.90
10133;DHT22;5106;50.926;7.080;2023-05-07T14:14:25;17.10;81.50
10133;DHT22;5106;50.926;7.080;2023-05-07T14:16:51;17.00;81.80
10133;DHT22;5106;50.926;7.080;2023-05-07T14:19:16;16.80;82.00
10133;DHT22;5106;50.926;7.080;2023-05-07T14:21:42;16.70;82.30
10133;DHT22;5106;50.926;7.080;2023-05-07T14:24:07;16.70;82.60
10133;DHT22;5106;50.926;7.080;2023-05-07T14:26:34;16.60;82.70
10133;DHT22;5106;50.926;7.080;2023-05-07T14:29:00;16.60;82.90
10133;DHT22;5106;50.926;7.080;2023-05-07T14:31:25;16.70;83.10
10133;DHT22;5106;50.926;7.080;2023-05-07T14:33:51;16.70;83.30
10133;DHT22;5106;50.926;7.080;2023-05-07T14:36:17;16.80;83.40
10133;DHT22;5106;50.926;7.080;2023-05-07T14:38:46;16.80;83.40
10133;DHT22;5106;50.926;7.080;2023-05-07T14:41:11;16.80;83.50
10133;DHT22;5106;50.926;7.080;2023-05-07T14:43:37;16.80;83.50
10133;DHT22;5106;50.926;7.080;2023-05-07T14:46:02;16.90;83.70
10133;DHT22;5106;50.926;7.080;2023-05-07T14:48:28;17.00;83.70
10133;DHT22;5106;50.926;7.080;2023-05-07T14:50:54;17.10;83.80
10133;DHT22;5106;50.926;7.080;2023-05-07T14:53:20;17.20;83.90
10133;DHT22;5106;50.926;7.080;2023-05-07T14:55:46;17.10;83.90
10133;DHT22;5106;50.926;7.080;2023-05-07T14:58:14;17.10;83.80
10133;DHT22;5106;50.926;7.080;2023-05-07T15:00:41;17.10;83.80
10133;DHT22;5106;50.926;7.080;2023-05-07T15:03:08;17.10;83.90
10133;DHT22;5106;50.926;7.080;2023-05-07T15:05:36;17.20;84.00
10133;DHT22;5106;50.926;7.080;2023-05-07T15:08:02;17.20;84.10
10133;DHT22;5106;50.926;7.080;2023-05-07T15:10:28;17.20;83.90
10133;DHT22;5106;50.926;7.080;2023-05-07T15:12:53;17.20;83.80
10133;DHT22;5106;50.926;7.080;2023-05-07T15:15:19;17.20;84.00
10133;DHT22;5106;50.926;7.080;2023-05-07T15:17:45;17.20;84.00
10133;DHT22;5106;50.926;7.080;2023-05-07T15:20:10;17.20;84.00
10133;DHT22;5106;50.926;7.080;2023-05-07T15:22:36;17.30;84.10
10133;DHT22;5106;50.926;7.080;2023-05-07T15:25:03;17.20;84.00
10133;DHT22;5106;50.926;7.080;2023-05-07T15:27:29;17.10;84.00
10133;DHT22;5106;50.926;7.080;2023-05-07T15:29:56;17.20;84.00
10133;DHT22;5106;50.926;7.080;2023-05-07T15:32:21;17.20;84.20
10133;DHT22;5106;50.926;7.080;2023-05-07T15:34:47;17.20;84.10
10133;DHT22;5106;50.926;7.080;2023-05-07T15:37:13;17.20;84.20
10133;DHT22;5106;50.926;7.080;2023-05-07T15:39:38;17.30;84.20
10133;DHT22;5106;50.926;7.080;2023-05-07T15:42:04;17.30;84.20
10133;DHT22;5106;50.926;7.080;2023-05-07T15:44:30;17.40;84.10
10133;DHT22;5106;50.926;7.080;2023-05-07T15:46:58;17.50;84.10
10133;DHT22;5106;50.926;7.080;2023-05-07T15:49:25;17.50;84.10
10133;DHT22;5106;50.926;7.080;2023-05-07T15:51:50;17.60;84.00
10133;DHT22;5106;50.926;7.080;2023-05-07T15:54:16;17.60;83.80